Terminal Aerodrome Forecast
Issued by NWS

Home | Current Version | Previous Version | Text Only | Print | Product List | Glossary On
Versions: 1 2 3 4 5 6 7 8 9 10 11 12 13 14 15 16 17 18 19 20 21 22 23 24
513
FTUS43 KJKL 251120
TAFSME
TAF
KSME 251120Z 2512/2612 24008KT 3SM -DZ OVC010
     FM251500 24010KT 3SM SHRA OVC008
     FM251800 26014G23KT P6SM VCSH OVC015
     FM252200 27012KT P6SM VCSH OVC035
     FM252300 27011KT P6SM BKN050=

USA.gov is the U.S. government's official web portal to all federal, state and local government web resources and services.